sensor_id;sensor_type;location;lat;lon;timestamp;P1;durP1;ratioP1;P2;durP2;ratioP2
48006;SDS011;33771;48.180;11.400;2023-04-10T00:00:29;20.67;;;13.33;;
48006;SDS011;33771;48.180;11.400;2023-04-10T00:03:00;21.37;;;13.83;;
48006;SDS011;33771;48.180;11.400;2023-04-10T00:05:26;25.20;;;14.00;;
48006;SDS011;33771;48.180;11.400;2023-04-10T00:07:51;17.37;;;11.93;;
48006;SDS011;33771;48.180;11.400;2023-04-10T00:10:17;18.37;;;13.17;;
48006;SDS011;33771;48.180;11.400;2023-04-10T00:12:43;18.03;;;12.30;;
48006;SDS011;33771;48.180;11.400;2023-04-10T00:15:09;16.93;;;11.87;;
48006;SDS011;33771;48.180;11.400;2023-04-10T00:17:35;16.80;;;12.17;;
48006;SDS011;33771;48.180;11.400;2023-04-10T00:20:00;20.80;;;12.97;;
48006;SDS011;33771;48.180;11.400;2023-04-10T00:22:26;20.40;;;14.47;;
48006;SDS011;33771;48.180;11.400;2023-04-10T00:24:51;20.67;;;13.60;;
48006;SDS011;33771;48.180;11.400;2023-04-10T00:27:17;21.73;;;14.37;;
48006;SDS011;33771;48.180;11.400;2023-04-10T00:29:42;21.03;;;14.27;;
48006;SDS011;33771;48.180;11.400;2023-04-10T00:32:08;23.77;;;15.63;;
48006;SDS011;33771;48.180;11.400;2023-04-10T00:34:34;22.80;;;15.63;;
48006;SDS011;33771;48.180;11.400;2023-04-10T00:36:59;25.87;;;16.40;;
48006;SDS011;33771;48.180;11.400;2023-04-10T00:39:25;25.13;;;16.97;;
48006;SDS011;33771;48.180;11.400;2023-04-10T00:41:51;22.70;;;15.87;;
48006;SDS011;33771;48.180;11.400;2023-04-10T00:44:16;22.17;;;15.17;;
48006;SDS011;33771;48.180;11.400;2023-04-10T00:46:42;23.63;;;15.63;;
48006;SDS011;33771;48.180;11.400;2023-04-10T00:49:08;22.53;;;14.97;;
48006;SDS011;33771;48.180;11.400;2023-04-10T00:51:34;23.83;;;16.57;;
48006;SDS011;33771;48.180;11.400;2023-04-10T00:54:01;23.80;;;15.67;;
48006;SDS011;33771;48.180;11.400;2023-04-10T00:56:29;23.70;;;15.80;;
48006;SDS011;33771;48.180;11.400;2023-04-10T00:58:56;22.63;;;15.63;;
48006;SDS011;33771;48.180;11.400;2023-04-10T01:01:21;23.73;;;15.70;;
48006;SDS011;33771;48.180;11.400;2023-04-10T01:03:47;21.83;;;14.40;;
48006;SDS011;33771;48.180;11.400;2023-04-10T01:11:32;23.97;;;13.97;;
48006;SDS011;33771;48.180;11.400;2023-04-10T01:17:03;19.03;;;12.40;;
48006;SDS011;33771;48.180;11.400;2023-04-10T01:19:44;20.27;;;13.80;;
48006;SDS011;33771;48.180;11.400;2023-04-10T01:22:25;19.77;;;13.57;;
48006;SDS011;33771;48.180;11.400;2023-04-10T01:27:44;19.90;;;13.50;;
48006;SDS011;33771;48.180;11.400;2023-04-10T01:30:28;21.90;;;15.20;;
48006;SDS011;33771;48.180;11.400;2023-04-10T01:32:59;20.53;;;14.27;;
48006;SDS011;33771;48.180;11.400;2023-04-10T01:35:27;24.03;;;16.00;;
48006;SDS011;33771;48.180;11.400;2023-04-10T01:37:54;22.60;;;15.40;;
48006;SDS011;33771;48.180;11.400;2023-04-10T01:40:21;21.20;;;15.03;;
48006;SDS011;33771;48.180;11.400;2023-04-10T01:42:52;22.10;;;15.60;;
48006;SDS011;33771;48.180;11.400;2023-04-10T01:45:20;22.80;;;15.57;;
48006;SDS011;33771;48.180;11.400;2023-04-10T01:47:49;24.27;;;16.40;;
48006;SDS011;33771;48.180;11.400;2023-04-10T01:50:15;23.33;;;15.27;;
48006;SDS011;33771;48.180;11.400;2023-04-10T01:52:41;25.93;;;16.37;;
48006;SDS011;33771;48.180;11.400;2023-04-10T01:55:09;21.97;;;15.03;;
48006;SDS011;33771;48.180;11.400;2023-04-10T01:57:35;23.53;;;16.07;;
48006;SDS011;33771;48.180;11.400;2023-04-10T02:00:02;24.40;;;16.93;;
48006;SDS011;33771;48.180;11.400;2023-04-10T02:02:31;24.00;;;15.67;;
48006;SDS011;33771;48.180;11.400;2023-04-10T02:04:57;24.03;;;15.97;;
48006;SDS011;33771;48.180;11.400;2023-04-10T02:10:14;24.70;;;15.47;;
48006;SDS011;33771;48.180;11.400;2023-04-10T02:13:05;24.40;;;15.85;;
48006;SDS011;33771;48.180;11.400;2023-04-10T02:15:31;22.47;;;14.93;;
48006;SDS011;33771;48.180;11.400;2023-04-10T02:17:59;24.73;;;15.77;;
48006;SDS011;33771;48.180;11.400;2023-04-10T02:20:28;21.63;;;14.83;;
48006;SDS011;33771;48.180;11.400;2023-04-10T02:22:55;23.13;;;15.17;;
48006;SDS011;33771;48.180;11.400;2023-04-10T02:25:22;22.80;;;15.50;;
48006;SDS011;33771;48.180;11.400;2023-04-10T02:27:47;21.33;;;14.70;;
48006;SDS011;33771;48.180;11.400;2023-04-10T02:30:13;22.60;;;14.97;;
48006;SDS011;33771;48.180;11.400;2023-04-10T02:32:38;21.23;;;14.53;;
48006;SDS011;33771;48.180;11.400;2023-04-10T02:35:04;21.83;;;14.80;;
48006;SDS011;33771;48.180;11.400;2023-04-10T02:37:29;23.77;;;14.90;;
48006;SDS011;33771;48.180;11.400;2023-04-10T02:39:55;24.60;;;14.90;;
48006;SDS011;33771;48.180;11.400;2023-04-10T02:42:21;22.13;;;14.40;;
48006;SDS011;33771;48.180;11.400;2023-04-10T02:44:47;22.17;;;15.03;;
48006;SDS011;33771;48.180;11.400;2023-04-10T02:47:12;22.97;;;15.27;;
48006;SDS011;33771;48.180;11.400;2023-04-10T02:49:38;21.13;;;14.60;;
48006;SDS011;33771;48.180;11.400;2023-04-10T02:52:04;19.97;;;13.50;;
48006;SDS011;33771;48.180;11.400;2023-04-10T02:54:30;21.93;;;14.83;;
48006;SDS011;33771;48.180;11.400;2023-04-10T02:56:55;21.10;;;13.20;;
48006;SDS011;33771;48.180;11.400;2023-04-10T02:59:24;22.60;;;14.30;;
48006;SDS011;33771;48.180;11.400;2023-04-10T03:01:49;21.53;;;13.63;;
48006;SDS011;33771;48.180;11.400;2023-04-10T03:04:18;20.13;;;13.90;;
48006;SDS011;33771;48.180;11.400;2023-04-10T03:06:43;24.70;;;14.07;;
48006;SDS011;33771;48.180;11.400;2023-04-10T03:09:09;22.00;;;14.70;;
48006;SDS011;33771;48.180;11.400;2023-04-10T03:11:35;22.00;;;14.57;;
48006;SDS011;33771;48.180;11.400;2023-04-10T03:14:00;22.53;;;14.83;;
48006;SDS011;33771;48.180;11.400;2023-04-10T03:16:26;23.53;;;14.53;;
48006;SDS011;33771;48.180;11.400;2023-04-10T03:18:51;22.87;;;13.97;;
48006;SDS011;33771;48.180;11.400;2023-04-10T03:21:17;23.10;;;14.50;;
48006;SDS011;33771;48.180;11.400;2023-04-10T03:23:43;22.73;;;14.23;;
48006;SDS011;33771;48.180;11.400;2023-04-10T03:26:09;21.73;;;13.60;;
48006;SDS011;33771;48.180;11.400;2023-04-10T03:28:34;20.10;;;13.83;;
48006;SDS011;33771;48.180;11.400;2023-04-10T03:31:01;21.83;;;13.70;;
48006;SDS011;33771;48.180;11.400;2023-04-10T03:33:27;23.27;;;13.30;;
48006;SDS011;33771;48.180;11.400;2023-04-10T03:35:53;20.87;;;13.93;;
48006;SDS011;33771;48.180;11.400;2023-04-10T03:38:18;19.90;;;13.17;;
48006;SDS011;33771;48.180;11.400;2023-04-10T03:40:44;21.60;;;13.27;;
48006;SDS011;33771;48.180;11.400;2023-04-10T03:43:09;23.87;;;14.37;;
48006;SDS011;33771;48.180;11.400;2023-04-10T03:45:35;21.33;;;13.57;;
48006;SDS011;33771;48.180;11.400;2023-04-10T03:48:00;20.40;;;13.03;;
48006;SDS011;33771;48.180;11.400;2023-04-10T03:50:26;20.77;;;14.17;;
48006;SDS011;33771;48.180;11.400;2023-04-10T03:52:52;21.93;;;14.40;;
48006;SDS011;33771;48.180;11.400;2023-04-10T03:55:17;22.13;;;14.13;;
48006;SDS011;33771;48.180;11.400;2023-04-10T03:57:46;23.33;;;14.73;;
48006;SDS011;33771;48.180;11.400;2023-04-10T04:00:13;22.00;;;13.97;;
48006;SDS011;33771;48.180;11.400;2023-04-10T04:02:39;22.77;;;15.93;;
48006;SDS011;33771;48.180;11.400;2023-04-10T04:05:05;23.23;;;15.17;;
48006;SDS011;33771;48.180;11.400;2023-04-10T04:07:31;22.60;;;14.77;;
48006;SDS011;33771;48.180;11.400;2023-04-10T04:09:56;22.40;;;14.30;;
48006;SDS011;33771;48.180;11.400;2023-04-10T04:12:22;23.53;;;14.27;;
48006;SDS011;33771;48.180;11.400;2023-04-10T04:14:47;22.47;;;13.70;;
48006;SDS011;33771;48.180;11.400;2023-04-10T04:17:13;19.73;;;13.63;;
48006;SDS011;33771;48.180;11.400;2023-04-10T04:19:38;22.60;;;13.90;;
48006;SDS011;33771;48.180;11.400;2023-04-10T04:22:04;19.47;;;12.90;;
48006;SDS011;33771;48.180;11.400;2023-04-10T04:24:30;18.70;;;13.30;;
48006;SDS011;33771;48.180;11.400;2023-04-10T04:26:55;19.40;;;12.97;;
48006;SDS011;33771;48.180;11.400;2023-04-10T04:29:21;18.37;;;12.67;;
48006;SDS011;33771;48.180;11.400;2023-04-10T04:31:47;18.67;;;13.07;;
48006;SDS011;33771;48.180;11.400;2023-04-10T04:34:12;20.23;;;12.53;;
48006;SDS011;33771;48.180;11.400;2023-04-10T04:36:38;19.50;;;13.03;;
48006;SDS011;33771;48.180;11.400;2023-04-10T04:39:03;19.27;;;12.70;;
48006;SDS011;33771;48.180;11.400;2023-04-10T04:41:29;20.73;;;13.33;;
48006;SDS011;33771;48.180;11.400;2023-04-10T04:43:56;19.83;;;12.37;;
48006;SDS011;33771;48.180;11.400;2023-04-10T04:46:22;19.07;;;13.37;;
48006;SDS011;33771;48.180;11.400;2023-04-10T04:48:48;20.00;;;12.00;;
48006;SDS011;33771;48.180;11.400;2023-04-10T04:51:13;23.30;;;13.00;;
48006;SDS011;33771;48.180;11.400;2023-04-10T04:53:39;16.83;;;11.60;;
48006;SDS011;33771;48.180;11.400;2023-04-10T04:56:05;16.87;;;11.27;;
48006;SDS011;33771;48.180;11.400;2023-04-10T04:58:30;17.60;;;11.60;;
48006;SDS011;33771;48.180;11.400;2023-04-10T05:00:56;20.00;;;11.90;;
48006;SDS011;33771;48.180;11.400;2023-04-10T05:03:21;19.13;;;11.67;;
48006;SDS011;33771;48.180;11.400;2023-04-10T05:05:47;16.87;;;11.67;;
48006;SDS011;33771;48.180;11.400;2023-04-10T05:08:12;16.47;;;11.47;;
48006;SDS011;33771;48.180;11.400;2023-04-10T05:10:38;16.87;;;11.43;;
48006;SDS011;33771;48.180;11.400;2023-04-10T05:13:04;17.23;;;11.47;;
48006;SDS011;33771;48.180;11.400;2023-04-10T05:15:29;19.70;;;12.73;;
48006;SDS011;33771;48.180;11.400;2023-04-10T05:17:55;19.00;;;13.13;;
48006;SDS011;33771;48.180;11.400;2023-04-10T05:20:20;21.37;;;14.10;;
48006;SDS011;33771;48.180;11.400;2023-04-10T05:22:46;18.93;;;13.27;;
48006;SDS011;33771;48.180;11.400;2023-04-10T05:25:12;20.57;;;14.13;;
48006;SDS011;33771;48.180;11.400;2023-04-10T05:27:38;20.17;;;13.80;;
48006;SDS011;33771;48.180;11.400;2023-04-10T05:30:03;18.90;;;13.63;;
48006;SDS011;33771;48.180;11.400;2023-04-10T05:32:29;21.03;;;13.57;;
48006;SDS011;33771;48.180;11.400;2023-04-10T05:34:55;21.53;;;14.27;;
48006;SDS011;33771;48.180;11.400;2023-04-10T05:37:20;23.13;;;15.83;;
48006;SDS011;33771;48.180;11.400;2023-04-10T05:39:46;21.07;;;14.30;;
48006;SDS011;33771;48.180;11.400;2023-04-10T05:42:11;22.47;;;14.77;;
48006;SDS011;33771;48.180;11.400;2023-04-10T05:44:37;21.23;;;14.50;;
48006;SDS011;33771;48.180;11.400;2023-04-10T05:47:03;24.73;;;15.10;;
48006;SDS011;33771;48.180;11.400;2023-04-10T05:49:28;25.03;;;15.57;;
48006;SDS011;33771;48.180;11.400;2023-04-10T05:51:54;21.53;;;14.40;;
48006;SDS011;33771;48.180;11.400;2023-04-10T05:54:20;25.63;;;15.27;;
48006;SDS011;33771;48.180;11.400;2023-04-10T05:56:45;23.33;;;15.23;;
48006;SDS011;33771;48.180;11.400;2023-04-10T05:59:11;20.50;;;14.23;;
48006;SDS011;33771;48.180;11.400;2023-04-10T06:01:37;47.57;;;23.73;;
48006;SDS011;33771;48.180;11.400;2023-04-10T06:04:03;99.00;;;55.70;;
48006;SDS011;33771;48.180;11.400;2023-04-10T06:06:30;30.17;;;19.33;;
48006;SDS011;33771;48.180;11.400;2023-04-10T06:08:56;19.30;;;13.17;;
48006;SDS011;33771;48.180;11.400;2023-04-10T06:11:22;18.07;;;12.97;;
48006;SDS011;33771;48.180;11.400;2023-04-10T06:13:47;20.53;;;14.13;;
48006;SDS011;33771;48.180;11.400;2023-04-10T06:16:13;26.10;;;17.37;;
48006;SDS011;33771;48.180;11.400;2023-04-10T06:18:40;26.90;;;17.53;;
48006;SDS011;33771;48.180;11.400;2023-04-10T06:21:05;25.10;;;16.43;;
48006;SDS011;33771;48.180;11.400;2023-04-10T06:23:31;23.93;;;15.03;;
48006;SDS011;33771;48.180;11.400;2023-04-10T06:25:57;18.73;;;14.03;;
48006;SDS011;33771;48.180;11.400;2023-04-10T06:28:23;20.07;;;14.33;;
48006;SDS011;33771;48.180;11.400;2023-04-10T06:30:49;21.47;;;14.87;;
48006;SDS011;33771;48.180;11.400;2023-04-10T06:33:15;17.90;;;12.30;;
48006;SDS011;33771;48.180;11.400;2023-04-10T06:35:40;17.17;;;12.40;;
48006;SDS011;33771;48.180;11.400;2023-04-10T06:38:06;16.17;;;11.60;;
48006;SDS011;33771;48.180;11.400;2023-04-10T06:40:32;16.97;;;11.93;;
48006;SDS011;33771;48.180;11.400;2023-04-10T06:42:58;15.80;;;11.10;;
48006;SDS011;33771;48.180;11.400;2023-04-10T06:45:24;18.90;;;12.47;;
48006;SDS011;33771;48.180;11.400;2023-04-10T06:47:50;19.73;;;14.13;;
48006;SDS011;33771;48.180;11.400;2023-04-10T06:50:16;15.87;;;11.07;;
48006;SDS011;33771;48.180;11.400;2023-04-10T06:52:42;16.63;;;11.00;;
48006;SDS011;33771;48.180;11.400;2023-04-10T06:55:11;14.60;;;11.00;;
48006;SDS011;33771;48.180;11.400;2023-04-10T06:57:37;15.87;;;11.80;;
48006;SDS011;33771;48.180;11.400;2023-04-10T07:00:04;15.20;;;10.90;;
48006;SDS011;33771;48.180;11.400;2023-04-10T07:02:30;13.83;;;10.17;;
48006;SDS011;33771;48.180;11.400;2023-04-10T07:04:56;15.40;;;11.00;;
48006;SDS011;33771;48.180;11.400;2023-04-10T07:07:21;14.53;;;9.40;;
48006;SDS011;33771;48.180;11.400;2023-04-10T07:09:47;14.23;;;9.80;;
48006;SDS011;33771;48.180;11.400;2023-04-10T07:12:13;14.40;;;11.00;;
48006;SDS011;33771;48.180;11.400;2023-04-10T07:14:38;13.33;;;9.90;;
48006;SDS011;33771;48.180;11.400;2023-04-10T07:17:05;13.03;;;8.77;;
48006;SDS011;33771;48.180;11.400;2023-04-10T07:19:30;11.27;;;8.47;;
48006;SDS011;33771;48.180;11.400;2023-04-10T07:21:56;11.77;;;9.17;;
48006;SDS011;33771;48.180;11.400;2023-04-10T07:24:22;11.70;;;9.00;;
48006;SDS011;33771;48.180;11.400;2023-04-10T07:26:47;12.93;;;9.40;;
48006;SDS011;33771;48.180;11.400;2023-04-10T07:29:13;11.73;;;8.90;;
48006;SDS011;33771;48.180;11.400;2023-04-10T07:31:39;21.80;;;14.27;;
48006;SDS011;33771;48.180;11.400;2023-04-10T07:34:05;14.80;;;10.70;;
48006;SDS011;33771;48.180;11.400;2023-04-10T07:36:31;12.20;;;8.97;;
48006;SDS011;33771;48.180;11.400;2023-04-10T07:38:56;11.77;;;8.90;;
48006;SDS011;33771;48.180;11.400;2023-04-10T07:41:22;11.50;;;9.00;;
48006;SDS011;33771;48.180;11.400;2023-04-10T07:43:48;14.33;;;11.37;;
48006;SDS011;33771;48.180;11.400;2023-04-10T07:46:14;14.70;;;11.23;;
48006;SDS011;33771;48.180;11.400;2023-04-10T07:48:39;11.13;;;8.63;;
48006;SDS011;33771;48.180;11.400;2023-04-10T07:51:05;10.67;;;8.67;;
48006;SDS011;33771;48.180;11.400;2023-04-10T07:53:34;20.30;;;13.50;;
48006;SDS011;33771;48.180;11.400;2023-04-10T07:56:00;11.67;;;8.87;;
48006;SDS011;33771;48.180;11.400;2023-04-10T07:58:26;12.80;;;9.17;;
48006;SDS011;33771;48.180;11.400;2023-04-10T08:00:51;21.47;;;15.00;;
48006;SDS011;33771;48.180;11.400;2023-04-10T08:03:17;10.50;;;8.17;;
48006;SDS011;33771;48.180;11.400;2023-04-10T08:05:42;19.97;;;13.90;;
48006;SDS011;33771;48.180;11.400;2023-04-10T08:08:08;11.40;;;8.50;;
48006;SDS011;33771;48.180;11.400;2023-04-10T08:10:36;9.80;;;7.27;;
48006;SDS011;33771;48.180;11.400;2023-04-10T08:13:03;12.80;;;8.73;;
48006;SDS011;33771;48.180;11.400;2023-04-10T08:15:29;14.70;;;10.30;;
48006;SDS011;33771;48.180;11.400;2023-04-10T08:17:55;14.73;;;9.70;;
48006;SDS011;33771;48.180;11.400;2023-04-10T08:20:20;15.13;;;10.33;;
48006;SDS011;33771;48.180;11.400;2023-04-10T08:22:46;19.90;;;12.17;;
48006;SDS011;33771;48.180;11.400;2023-04-10T08:25:12;15.67;;;10.60;;
48006;SDS011;33771;48.180;11.400;2023-04-10T08:27:37;10.53;;;8.60;;
48006;SDS011;33771;48.180;11.400;2023-04-10T08:30:03;9.13;;;6.70;;
48006;SDS011;33771;48.180;11.400;2023-04-10T08:32:29;8.70;;;6.63;;
48006;SDS011;33771;48.180;11.400;2023-04-10T08:34:55;9.57;;;7.30;;
48006;SDS011;33771;48.180;11.400;2023-04-10T08:37:20;8.77;;;6.67;;
48006;SDS011;33771;48.180;11.400;2023-04-10T08:39:46;8.57;;;6.57;;
48006;SDS011;33771;48.180;11.400;2023-04-10T08:42:12;8.50;;;6.90;;
48006;SDS011;33771;48.180;11.400;2023-04-10T08:44:37;8.73;;;7.00;;
48006;SDS011;33771;48.180;11.400;2023-04-10T08:47:04;7.63;;;5.73;;
48006;SDS011;33771;48.180;11.400;2023-04-10T08:49:39;7.33;;;5.83;;
48006;SDS011;33771;48.180;11.400;2023-04-10T08:52:14;7.37;;;5.47;;
48006;SDS011;33771;48.180;11.400;2023-04-10T08:54:42;7.33;;;5.83;;
48006;SDS011;33771;48.180;11.400;2023-04-10T08:57:14;8.07;;;5.90;;
48006;SDS011;33771;48.180;11.400;2023-04-10T08:59:44;7.70;;;5.87;;
48006;SDS011;33771;48.180;11.400;2023-04-10T09:02:11;7.27;;;6.03;;
48006;SDS011;33771;48.180;11.400;2023-04-10T09:04:36;8.20;;;6.60;;
48006;SDS011;33771;48.180;11.400;2023-04-10T09:07:02;7.70;;;6.10;;
48006;SDS011;33771;48.180;11.400;2023-04-10T09:09:27;7.37;;;6.00;;
48006;SDS011;33771;48.180;11.400;2023-04-10T09:11:56;7.50;;;6.13;;
48006;SDS011;33771;48.180;11.400;2023-04-10T09:14:31;6.67;;;5.20;;
48006;SDS011;33771;48.180;11.400;2023-04-10T09:17:11;8.57;;;7.07;;
48006;SDS011;33771;48.180;11.400;2023-04-10T09:19:36;8.17;;;6.33;;
48006;SDS011;33771;48.180;11.400;2023-04-10T09:22:02;8.57;;;6.72;;
48006;SDS011;33771;48.180;11.400;2023-04-10T09:24:28;7.55;;;5.60;;
48006;SDS011;33771;48.180;11.400;2023-04-10T09:26:54;7.40;;;5.82;;
48006;SDS011;33771;48.180;11.400;2023-04-10T09:29:19;7.63;;;6.13;;
48006;SDS011;33771;48.180;11.400;2023-04-10T09:31:45;6.43;;;5.13;;
48006;SDS011;33771;48.180;11.400;2023-04-10T09:34:12;7.65;;;6.07;;
48006;SDS011;33771;48.180;11.400;2023-04-10T09:36:39;6.57;;;5.30;;
48006;SDS011;33771;48.180;11.400;2023-04-10T09:39:05;8.05;;;5.07;;
48006;SDS011;33771;48.180;11.400;2023-04-10T09:41:32;6.65;;;5.10;;
48006;SDS011;33771;48.180;11.400;2023-04-10T09:44:04;6.13;;;4.80;;
48006;SDS011;33771;48.180;11.400;2023-04-10T09:46:31;5.88;;;5.28;;
48006;SDS011;33771;48.180;11.400;2023-04-10T09:48:58;5.95;;;5.10;;
48006;SDS011;33771;48.180;11.400;2023-04-10T09:51:27;6.07;;;5.25;;
48006;SDS011;33771;48.180;11.400;2023-04-10T09:53:54;5.10;;;4.38;;
48006;SDS011;33771;48.180;11.400;2023-04-10T09:56:21;4.40;;;4.00;;
48006;SDS011;33771;48.180;11.400;2023-04-10T09:58:47;5.95;;;4.97;;
48006;SDS011;33771;48.180;11.400;2023-04-10T10:01:13;5.97;;;4.75;;
48006;SDS011;33771;48.180;11.400;2023-04-10T10:03:39;5.35;;;4.55;;
48006;SDS011;33771;48.180;11.400;2023-04-10T10:06:05;5.82;;;4.53;;
48006;SDS011;33771;48.180;11.400;2023-04-10T10:08:31;7.68;;;4.75;;
48006;SDS011;33771;48.180;11.400;2023-04-10T10:10:58;5.03;;;4.35;;
48006;SDS011;33771;48.180;11.400;2023-04-10T10:13:37;5.10;;;4.28;;
48006;SDS011;33771;48.180;11.400;2023-04-10T10:16:12;6.78;;;4.45;;
48006;SDS011;33771;48.180;11.400;2023-04-10T10:19:05;6.90;;;5.68;;
48006;SDS011;33771;48.180;11.400;2023-04-10T10:21:43;6.15;;;5.00;;
48006;SDS011;33771;48.180;11.400;2023-04-10T10:24:09;5.88;;;4.30;;
48006;SDS011;33771;48.180;11.400;2023-04-10T10:26:37;5.65;;;4.57;;
48006;SDS011;33771;48.180;11.400;2023-04-10T10:29:04;6.18;;;5.13;;
48006;SDS011;33771;48.180;11.400;2023-04-10T10:31:34;4.85;;;4.22;;
48006;SDS011;33771;48.180;11.400;2023-04-10T10:34:01;6.00;;;4.60;;
48006;SDS011;33771;48.180;11.400;2023-04-10T10:36:29;5.30;;;4.18;;
48006;SDS011;33771;48.180;11.400;2023-04-10T10:42:04;6.07;;;4.38;;
48006;SDS011;33771;48.180;11.400;2023-04-10T10:44:44;8.85;;;5.85;;
48006;SDS011;33771;48.180;11.400;2023-04-10T10:47:19;6.30;;;5.13;;
48006;SDS011;33771;48.180;11.400;2023-04-10T10:49:52;20.83;;;12.38;;
48006;SDS011;33771;48.180;11.400;2023-04-10T10:57:46;5.82;;;5.05;;
48006;SDS011;33771;48.180;11.400;2023-04-10T11:00:13;5.13;;;4.55;;
48006;SDS011;33771;48.180;11.400;2023-04-10T11:02:40;5.68;;;4.65;;
48006;SDS011;33771;48.180;11.400;2023-04-10T11:05:06;5.55;;;4.22;;
48006;SDS011;33771;48.180;11.400;2023-04-10T11:08:14;5.25;;;4.60;;
48006;SDS011;33771;48.180;11.400;2023-04-10T11:11:06;5.22;;;4.20;;
48006;SDS011;33771;48.180;11.400;2023-04-10T11:13:25;4.70;;;3.75;;
48006;SDS011;33771;48.180;11.400;2023-04-10T11:15:51;4.97;;;3.90;;
48006;SDS011;33771;48.180;11.400;2023-04-10T11:18:16;6.28;;;4.88;;
48006;SDS011;33771;48.180;11.400;2023-04-10T11:23:32;8.40;;;6.63;;
48006;SDS011;33771;48.180;11.400;2023-04-10T11:25:58;5.82;;;4.60;;
48006;SDS011;33771;48.180;11.400;2023-04-10T11:28:33;5.35;;;4.30;;
48006;SDS011;33771;48.180;11.400;2023-04-10T11:36:24;5.03;;;3.63;;
48006;SDS011;33771;48.180;11.400;2023-04-10T11:39:07;6.35;;;3.90;;
48006;SDS011;33771;48.180;11.400;2023-04-10T11:41:55;4.25;;;3.85;;
48006;SDS011;33771;48.180;11.400;2023-04-10T11:46:55;12.02;;;10.52;;
48006;SDS011;33771;48.180;11.400;2023-04-10T11:49:25;15.32;;;13.80;;
48006;SDS011;33771;48.180;11.400;2023-04-10T11:51:54;4.80;;;4.28;;
48006;SDS011;33771;48.180;11.400;2023-04-10T11:57:00;6.78;;;6.00;;
48006;SDS011;33771;48.180;11.400;2023-04-10T11:59:28;6.93;;;6.22;;
48006;SDS011;33771;48.180;11.400;2023-04-10T12:02:07;4.75;;;4.20;;
48006;SDS011;33771;48.180;11.400;2023-04-10T12:04:38;4.60;;;3.72;;
48006;SDS011;33771;48.180;11.400;2023-04-10T12:07:04;4.60;;;3.95;;
48006;SDS011;33771;48.180;11.400;2023-04-10T12:09:30;5.57;;;4.07;;
48006;SDS011;33771;48.180;11.400;2023-04-10T12:12:00;5.28;;;4.75;;
48006;SDS011;33771;48.180;11.400;2023-04-10T12:16:58;3.92;;;2.88;;
48006;SDS011;33771;48.180;11.400;2023-04-10T12:19:25;4.20;;;3.40;;
48006;SDS011;33771;48.180;11.400;2023-04-10T12:21:51;3.75;;;2.65;;
48006;SDS011;33771;48.180;11.400;2023-04-10T12:29:45;3.63;;;3.00;;
48006;SDS011;33771;48.180;11.400;2023-04-10T12:32:11;4.70;;;3.80;;
48006;SDS011;33771;48.180;11.400;2023-04-10T12:34:37;4.55;;;3.65;;
48006;SDS011;33771;48.180;11.400;2023-04-10T12:37:03;3.70;;;2.90;;
48006;SDS011;33771;48.180;11.400;2023-04-10T12:39:29;5.15;;;2.92;;
48006;SDS011;33771;48.180;11.400;2023-04-10T12:42:14;5.38;;;3.20;;
48006;SDS011;33771;48.180;11.400;2023-04-10T12:47:20;4.50;;;3.78;;
48006;SDS011;33771;48.180;11.400;2023-04-10T12:50:06;4.20;;;3.20;;
48006;SDS011;33771;48.180;11.400;2023-04-10T12:52:32;7.95;;;3.33;;
48006;SDS011;33771;48.180;11.400;2023-04-10T12:55:09;4.50;;;2.90;;
48006;SDS011;33771;48.180;11.400;2023-04-10T12:57:43;4.00;;;3.40;;
48006;SDS011;33771;48.180;11.400;2023-04-10T13:00:11;3.58;;;3.05;;
48006;SDS011;33771;48.180;11.400;2023-04-10T13:02:38;5.25;;;3.13;;
48006;SDS011;33771;48.180;11.400;2023-04-10T13:05:05;4.00;;;3.38;;
48006;SDS011;33771;48.180;11.400;2023-04-10T13:07:31;6.97;;;3.33;;
48006;SDS011;33771;48.180;11.400;2023-04-10T13:09:57;4.57;;;3.28;;
48006;SDS011;33771;48.180;11.400;2023-04-10T13:12:24;4.50;;;3.50;;
48006;SDS011;33771;48.180;11.400;2023-04-10T13:14:50;9.18;;;3.25;;
48006;SDS011;33771;48.180;11.400;2023-04-10T13:17:18;3.33;;;2.85;;
48006;SDS011;33771;48.180;11.400;2023-04-10T13:19:46;5.28;;;4.32;;
48006;SDS011;33771;48.180;11.400;2023-04-10T13:22:12;6.70;;;3.80;;
48006;SDS011;33771;48.180;11.400;2023-04-10T13:24:38;6.72;;;3.13;;
48006;SDS011;33771;48.180;11.400;2023-04-10T13:27:04;5.18;;;3.10;;
48006;SDS011;33771;48.180;11.400;2023-04-10T13:29:30;4.60;;;3.40;;
48006;SDS011;33771;48.180;11.400;2023-04-10T13:31:55;6.82;;;3.28;;
48006;SDS011;33771;48.180;11.400;2023-04-10T13:34:21;4.10;;;3.40;;
48006;SDS011;33771;48.180;11.400;2023-04-10T13:36:46;4.00;;;3.42;;
48006;SDS011;33771;48.180;11.400;2023-04-10T13:39:12;3.83;;;3.17;;
48006;SDS011;33771;48.180;11.400;2023-04-10T13:41:38;4.53;;;3.38;;
48006;SDS011;33771;48.180;11.400;2023-04-10T13:44:04;4.68;;;3.28;;
48006;SDS011;33771;48.180;11.400;2023-04-10T13:46:29;8.55;;;4.45;;
48006;SDS011;33771;48.180;11.400;2023-04-10T13:48:55;3.83;;;3.38;;
48006;SDS011;33771;48.180;11.400;2023-04-10T13:51:21;8.55;;;3.47;;
48006;SDS011;33771;48.180;11.400;2023-04-10T13:53:46;5.60;;;3.20;;
48006;SDS011;33771;48.180;11.400;2023-04-10T13:56:12;9.40;;;3.30;;
48006;SDS011;33771;48.180;11.400;2023-04-10T13:58:38;4.18;;;2.75;;
48006;SDS011;33771;48.180;11.400;2023-04-10T14:01:03;3.88;;;2.70;;
48006;SDS011;33771;48.180;11.400;2023-04-10T14:03:29;4.82;;;3.03;;
48006;SDS011;33771;48.180;11.400;2023-04-10T14:05:55;3.80;;;3.00;;
48006;SDS011;33771;48.180;11.400;2023-04-10T14:08:20;3.92;;;2.97;;
48006;SDS011;33771;48.180;11.400;2023-04-10T14:10:46;3.28;;;2.85;;
48006;SDS011;33771;48.180;11.400;2023-04-10T14:13:18;3.10;;;2.53;;
48006;SDS011;33771;48.180;11.400;2023-04-10T14:15:44;3.80;;;2.70;;
48006;SDS011;33771;48.180;11.400;2023-04-10T14:18:10;4.25;;;2.83;;
48006;SDS011;33771;48.180;11.400;2023-04-10T14:20:36;3.80;;;3.10;;
48006;SDS011;33771;48.180;11.400;2023-04-10T14:23:01;4.32;;;3.30;;
48006;SDS011;33771;48.180;11.400;2023-04-10T14:25:27;4.47;;;3.38;;
48006;SDS011;33771;48.180;11.400;2023-04-10T14:27:53;3.95;;;3.30;;
48006;SDS011;33771;48.180;11.400;2023-04-10T14:30:18;7.65;;;6.78;;
48006;SDS011;33771;48.180;11.400;2023-04-10T14:32:44;4.25;;;3.38;;
48006;SDS011;33771;48.180;11.400;2023-04-10T14:35:10;3.50;;;3.10;;
48006;SDS011;33771;48.180;11.400;2023-04-10T14:37:36;4.90;;;3.40;;
48006;SDS011;33771;48.180;11.400;2023-04-10T14:40:02;4.35;;;3.20;;
48006;SDS011;33771;48.180;11.400;2023-04-10T14:42:29;4.53;;;3.13;;
48006;SDS011;33771;48.180;11.400;2023-04-10T14:44:55;3.40;;;2.67;;
48006;SDS011;33771;48.180;11.400;2023-04-10T14:47:22;5.07;;;2.70;;
48006;SDS011;33771;48.180;11.400;2023-04-10T14:49:48;4.22;;;2.92;;
48006;SDS011;33771;48.180;11.400;2023-04-10T14:52:14;3.30;;;2.60;;
48006;SDS011;33771;48.180;11.400;2023-04-10T14:54:39;5.07;;;2.92;;
48006;SDS011;33771;48.180;11.400;2023-04-10T14:57:05;3.03;;;2.53;;
48006;SDS011;33771;48.180;11.400;2023-04-10T14:59:31;3.88;;;2.95;;
48006;SDS011;33771;48.180;11.400;2023-04-10T15:01:56;3.80;;;2.78;;
48006;SDS011;33771;48.180;11.400;2023-04-10T15:04:22;3.65;;;2.92;;
48006;SDS011;33771;48.180;11.400;2023-04-10T15:06:47;3.70;;;3.00;;